sensor_id;sensor_type;location;lat;lon;timestamp;temperature;humidity
27900;DHT22;15243;50.726;7.080;2022-10-16T00:01:30;13.80;99.90
27900;DHT22;15243;50.726;7.080;2022-10-16T00:03:58;13.80;99.90
27900;DHT22;15243;50.726;7.080;2022-10-16T00:06:27;13.80;99.90
27900;DHT22;15243;50.726;7.080;2022-10-16T00:08:55;13.80;99.90
27900;DHT22;15243;50.726;7.080;2022-10-16T00:11:26;13.80;99.90
27900;DHT22;15243;50.726;7.080;2022-10-16T00:14:00;13.90;99.90
27900;DHT22;15243;50.726;7.080;2022-10-16T00:16:27;13.90;99.90
27900;DHT22;15243;50.726;7.080;2022-10-16T00:18:54;13.90;99.90
27900;DHT22;15243;50.726;7.080;2022-10-16T00:21:24;13.80;99.90
27900;DHT22;15243;50.726;7.080;2022-10-16T00:23:53;13.80;99.90
27900;DHT22;15243;50.726;7.080;2022-10-16T00:26:20;13.80;99.90
27900;DHT22;15243;50.726;7.080;2022-10-16T00:28:48;13.70;99.90
27900;DHT22;15243;50.726;7.080;2022-10-16T00:31:17;13.70;99.90
27900;DHT22;15243;50.726;7.080;2022-10-16T00:33:44;13.60;99.90
27900;DHT22;15243;50.726;7.080;2022-10-16T00:36:16;13.70;99.90
27900;DHT22;15243;50.726;7.080;2022-10-16T00:38:44;13.70;99.90
27900;DHT22;15243;50.726;7.080;2022-10-16T00:41:13;13.60;99.90
27900;DHT22;15243;50.726;7.080;2022-10-16T00:43:56;13.60;99.90
27900;DHT22;15243;50.726;7.080;2022-10-16T00:46:26;13.50;99.90
27900;DHT22;15243;50.726;7.080;2022-10-16T00:49:15;13.50;99.90
27900;DHT22;15243;50.726;7.080;2022-10-16T00:51:46;13.40;99.90
27900;DHT22;15243;50.726;7.080;2022-10-16T00:54:23;13.40;99.90
27900;DHT22;15243;50.726;7.080;2022-10-16T00:56:53;13.40;99.90
27900;DHT22;15243;50.726;7.080;2022-10-16T00:59:27;13.40;99.90
27900;DHT22;15243;50.726;7.080;2022-10-16T01:01:55;13.30;99.90
27900;DHT22;15243;50.726;7.080;2022-10-16T01:04:23;13.30;99.90
27900;DHT22;15243;50.726;7.080;2022-10-16T01:09:37;13.20;99.90
27900;DHT22;15243;50.726;7.080;2022-10-16T01:12:23;13.20;99.90
27900;DHT22;15243;50.726;7.080;2022-10-16T01:17:41;13.10;99.90
27900;DHT22;15243;50.726;7.080;2022-10-16T01:22:55;13.10;99.90
27900;DHT22;15243;50.726;7.080;2022-10-16T01:28:11;13.20;99.90
27900;DHT22;15243;50.726;7.080;2022-10-16T01:30:40;13.20;99.90
27900;DHT22;15243;50.726;7.080;2022-10-16T01:33:20;13.20;99.90
27900;DHT22;15243;50.726;7.080;2022-10-16T01:35:55;13.20;99.90
27900;DHT22;15243;50.726;7.080;2022-10-16T01:38:25;13.10;99.90
27900;DHT22;15243;50.726;7.080;2022-10-16T01:41:01;13.10;99.90
27900;DHT22;15243;50.726;7.080;2022-10-16T01:43:33;13.10;99.90
27900;DHT22;15243;50.726;7.080;2022-10-16T01:46:02;13.00;99.90
27900;DHT22;15243;50.726;7.080;2022-10-16T01:48:29;13.00;99.90
27900;DHT22;15243;50.726;7.080;2022-10-16T01:51:03;12.90;99.90
27900;DHT22;15243;50.726;7.080;2022-10-16T01:53:32;12.90;99.90
27900;DHT22;15243;50.726;7.080;2022-10-16T01:56:00;12.90;99.90
27900;DHT22;15243;50.726;7.080;2022-10-16T01:58:29;12.90;99.90
27900;DHT22;15243;50.726;7.080;2022-10-16T02:01:02;12.80;99.90
27900;DHT22;15243;50.726;7.080;2022-10-16T02:03:33;12.80;99.90
27900;DHT22;15243;50.726;7.080;2022-10-16T02:06:00;12.80;99.90
27900;DHT22;15243;50.726;7.080;2022-10-16T02:08:28;12.80;99.90
27900;DHT22;15243;50.726;7.080;2022-10-16T02:10:57;12.90;99.90
27900;DHT22;15243;50.726;7.080;2022-10-16T02:13:40;13.00;99.90
27900;DHT22;15243;50.726;7.080;2022-10-16T02:16:12;13.20;99.90
27900;DHT22;15243;50.726;7.080;2022-10-16T02:18:41;13.50;99.90
27900;DHT22;15243;50.726;7.080;2022-10-16T02:21:25;13.60;99.90
27900;DHT22;15243;50.726;7.080;2022-10-16T02:24:05;13.60;99.90
27900;DHT22;15243;50.726;7.080;2022-10-16T02:26:42;13.70;99.90
27900;DHT22;15243;50.726;7.080;2022-10-16T02:29:13;14.00;99.90
27900;DHT22;15243;50.726;7.080;2022-10-16T02:31:45;14.00;99.90
27900;DHT22;15243;50.726;7.080;2022-10-16T02:34:14;14.00;99.90
27900;DHT22;15243;50.726;7.080;2022-10-16T02:36:43;14.00;99.90
27900;DHT22;15243;50.726;7.080;2022-10-16T02:39:10;14.10;99.90
27900;DHT22;15243;50.726;7.080;2022-10-16T02:41:38;14.10;99.90
27900;DHT22;15243;50.726;7.080;2022-10-16T02:44:05;14.10;99.90
27900;DHT22;15243;50.726;7.080;2022-10-16T02:46:32;14.10;99.90
27900;DHT22;15243;50.726;7.080;2022-10-16T02:48:58;14.10;99.90
27900;DHT22;15243;50.726;7.080;2022-10-16T02:51:25;14.10;99.90
27900;DHT22;15243;50.726;7.080;2022-10-16T02:53:52;14.00;99.90
27900;DHT22;15243;50.726;7.080;2022-10-16T02:56:19;14.00;99.90
27900;DHT22;15243;50.726;7.080;2022-10-16T02:58:46;14.10;99.90
27900;DHT22;15243;50.726;7.080;2022-10-16T03:01:13;14.10;99.90
27900;DHT22;15243;50.726;7.080;2022-10-16T03:03:43;14.10;99.90
27900;DHT22;15243;50.726;7.080;2022-10-16T03:06:10;14.10;99.90
27900;DHT22;15243;50.726;7.080;2022-10-16T03:08:36;14.20;99.90
27900;DHT22;15243;50.726;7.080;2022-10-16T03:11:03;14.20;99.90
27900;DHT22;15243;50.726;7.080;2022-10-16T03:13:30;14.20;99.90
27900;DHT22;15243;50.726;7.080;2022-10-16T03:15:57;14.30;99.90
27900;DHT22;15243;50.726;7.080;2022-10-16T03:18:23;14.30;99.90
27900;DHT22;15243;50.726;7.080;2022-10-16T03:20:50;14.20;99.90
27900;DHT22;15243;50.726;7.080;2022-10-16T03:23:17;14.30;99.90
27900;DHT22;15243;50.726;7.080;2022-10-16T03:25:44;14.30;99.90
27900;DHT22;15243;50.726;7.080;2022-10-16T03:28:13;14.30;99.90
27900;DHT22;15243;50.726;7.080;2022-10-16T03:30:40;14.40;99.90
27900;DHT22;15243;50.726;7.080;2022-10-16T03:33:07;14.40;99.90
27900;DHT22;15243;50.726;7.080;2022-10-16T03:35:34;14.40;99.90
27900;DHT22;15243;50.726;7.080;2022-10-16T03:38:01;14.40;99.90
27900;DHT22;15243;50.726;7.080;2022-10-16T03:40:28;14.40;99.90
27900;DHT22;15243;50.726;7.080;2022-10-16T03:42:55;14.40;99.90
27900;DHT22;15243;50.726;7.080;2022-10-16T03:45:24;14.40;99.90
27900;DHT22;15243;50.726;7.080;2022-10-16T03:47:51;14.40;99.90
27900;DHT22;15243;50.726;7.080;2022-10-16T03:50:18;14.50;99.90
27900;DHT22;15243;50.726;7.080;2022-10-16T03:52:44;14.50;99.90
27900;DHT22;15243;50.726;7.080;2022-10-16T03:55:11;14.50;99.90
27900;DHT22;15243;50.726;7.080;2022-10-16T03:57:38;14.50;99.90
27900;DHT22;15243;50.726;7.080;2022-10-16T04:00:05;14.50;99.90
27900;DHT22;15243;50.726;7.080;2022-10-16T04:02:32;14.50;99.90
27900;DHT22;15243;50.726;7.080;2022-10-16T04:04:59;14.40;99.90
27900;DHT22;15243;50.726;7.080;2022-10-16T04:07:26;14.40;99.90
27900;DHT22;15243;50.726;7.080;2022-10-16T04:09:53;14.50;99.90
27900;DHT22;15243;50.726;7.080;2022-10-16T04:12:20;14.50;99.90
27900;DHT22;15243;50.726;7.080;2022-10-16T04:14:47;14.40;99.90
27900;DHT22;15243;50.726;7.080;2022-10-16T04:17:13;14.40;99.90
27900;DHT22;15243;50.726;7.080;2022-10-16T04:19:40;14.40;99.90
27900;DHT22;15243;50.726;7.080;2022-10-16T04:22:07;14.40;99.90
27900;DHT22;15243;50.726;7.080;2022-10-16T04:24:34;14.40;99.90
27900;DHT22;15243;50.726;7.080;2022-10-16T04:27:01;14.30;99.90
27900;DHT22;15243;50.726;7.080;2022-10-16T04:29:27;14.30;99.90
27900;DHT22;15243;50.726;7.080;2022-10-16T04:31:54;14.30;99.90
27900;DHT22;15243;50.726;7.080;2022-10-16T04:34:21;14.30;99.90
27900;DHT22;15243;50.726;7.080;2022-10-16T04:36:48;14.20;99.90
27900;DHT22;15243;50.726;7.080;2022-10-16T04:39:18;14.20;99.90
27900;DHT22;15243;50.726;7.080;2022-10-16T04:41:45;14.20;99.90
27900;DHT22;15243;50.726;7.080;2022-10-16T04:44:11;14.20;99.90
27900;DHT22;15243;50.726;7.080;2022-10-16T04:46:38;14.20;99.90
27900;DHT22;15243;50.726;7.080;2022-10-16T04:49:05;14.20;99.90
27900;DHT22;15243;50.726;7.080;2022-10-16T04:51:32;14.10;99.90
27900;DHT22;15243;50.726;7.080;2022-10-16T04:53:59;14.10;99.90
27900;DHT22;15243;50.726;7.080;2022-10-16T04:56:26;14.00;99.90
27900;DHT22;15243;50.726;7.080;2022-10-16T04:58:53;14.00;99.90
27900;DHT22;15243;50.726;7.080;2022-10-16T05:01:19;14.10;99.90
27900;DHT22;15243;50.726;7.080;2022-10-16T05:03:46;14.00;99.90
27900;DHT22;15243;50.726;7.080;2022-10-16T05:06:13;13.90;99.90
27900;DHT22;15243;50.726;7.080;2022-10-16T05:08:40;13.90;99.90
27900;DHT22;15243;50.726;7.080;2022-10-16T05:11:06;13.90;99.90
27900;DHT22;15243;50.726;7.080;2022-10-16T05:13:33;13.90;99.90
27900;DHT22;15243;50.726;7.080;2022-10-16T05:16:01;13.90;99.90
27900;DHT22;15243;50.726;7.080;2022-10-16T05:18:27;13.80;99.90
27900;DHT22;15243;50.726;7.080;2022-10-16T05:20:54;13.80;99.90
27900;DHT22;15243;50.726;7.080;2022-10-16T05:23:21;13.80;99.90
27900;DHT22;15243;50.726;7.080;2022-10-16T05:25:55;13.80;99.90
27900;DHT22;15243;50.726;7.080;2022-10-16T05:28:22;13.70;99.90
27900;DHT22;15243;50.726;7.080;2022-10-16T05:30:49;13.60;99.90
27900;DHT22;15243;50.726;7.080;2022-10-16T05:33:16;13.60;99.90
27900;DHT22;15243;50.726;7.080;2022-10-16T05:35:43;13.60;99.90
27900;DHT22;15243;50.726;7.080;2022-10-16T05:38:10;13.60;99.90
27900;DHT22;15243;50.726;7.080;2022-10-16T05:40:37;13.60;99.90
27900;DHT22;15243;50.726;7.080;2022-10-16T05:43:04;13.60;99.90
27900;DHT22;15243;50.726;7.080;2022-10-16T05:45:31;13.60;99.90
27900;DHT22;15243;50.726;7.080;2022-10-16T05:47:57;13.60;99.90
27900;DHT22;15243;50.726;7.080;2022-10-16T05:50:24;13.60;99.90
27900;DHT22;15243;50.726;7.080;2022-10-16T05:52:51;13.70;99.90
27900;DHT22;15243;50.726;7.080;2022-10-16T05:55:18;13.70;99.90
27900;DHT22;15243;50.726;7.080;2022-10-16T05:57:45;13.70;99.90
27900;DHT22;15243;50.726;7.080;2022-10-16T06:00:12;13.70;99.90
27900;DHT22;15243;50.726;7.080;2022-10-16T06:02:38;13.70;99.90
27900;DHT22;15243;50.726;7.080;2022-10-16T06:05:06;13.70;99.90
27900;DHT22;15243;50.726;7.080;2022-10-16T06:07:36;13.80;99.90
27900;DHT22;15243;50.726;7.080;2022-10-16T06:10:04;13.80;99.90
27900;DHT22;15243;50.726;7.080;2022-10-16T06:12:31;13.70;99.90
27900;DHT22;15243;50.726;7.080;2022-10-16T06:14:58;13.70;99.90
27900;DHT22;15243;50.726;7.080;2022-10-16T06:17:24;13.70;99.90
27900;DHT22;15243;50.726;7.080;2022-10-16T06:19:52;13.70;99.90
27900;DHT22;15243;50.726;7.080;2022-10-16T06:22:18;13.60;99.90
27900;DHT22;15243;50.726;7.080;2022-10-16T06:24:45;13.60;99.90
27900;DHT22;15243;50.726;7.080;2022-10-16T06:27:13;13.60;99.90
27900;DHT22;15243;50.726;7.080;2022-10-16T06:29:39;13.60;99.90
27900;DHT22;15243;50.726;7.080;2022-10-16T06:32:06;13.50;99.90
27900;DHT22;15243;50.726;7.080;2022-10-16T06:34:33;13.60;99.90
27900;DHT22;15243;50.726;7.080;2022-10-16T06:37:00;13.60;99.90
27900;DHT22;15243;50.726;7.080;2022-10-16T06:39:27;13.60;99.90
27900;DHT22;15243;50.726;7.080;2022-10-16T06:41:54;13.60;99.90
27900;DHT22;15243;50.726;7.080;2022-10-16T06:44:21;13.60;99.90
27900;DHT22;15243;50.726;7.080;2022-10-16T06:46:48;13.60;99.90
27900;DHT22;15243;50.726;7.080;2022-10-16T06:49:15;13.50;99.90
27900;DHT22;15243;50.726;7.080;2022-10-16T06:51:47;13.60;99.90
27900;DHT22;15243;50.726;7.080;2022-10-16T06:54:15;13.60;99.90
27900;DHT22;15243;50.726;7.080;2022-10-16T06:56:42;13.60;99.90
27900;DHT22;15243;50.726;7.080;2022-10-16T06:59:08;13.60;99.90
27900;DHT22;15243;50.726;7.080;2022-10-16T07:01:35;13.70;99.90
27900;DHT22;15243;50.726;7.080;2022-10-16T07:04:02;13.80;99.90
27900;DHT22;15243;50.726;7.080;2022-10-16T07:06:32;13.80;99.90
27900;DHT22;15243;50.726;7.080;2022-10-16T07:09:02;13.80;99.90
27900;DHT22;15243;50.726;7.080;2022-10-16T07:11:29;13.80;99.90
27900;DHT22;15243;50.726;7.080;2022-10-16T07:13:56;13.90;99.90
27900;DHT22;15243;50.726;7.080;2022-10-16T07:16:26;13.90;99.90
27900;DHT22;15243;50.726;7.080;2022-10-16T07:19:01;13.90;99.90
27900;DHT22;15243;50.726;7.080;2022-10-16T07:21:30;14.00;99.90
27900;DHT22;15243;50.726;7.080;2022-10-16T07:23:59;14.00;99.90
27900;DHT22;15243;50.726;7.080;2022-10-16T07:26:30;14.00;99.90
27900;DHT22;15243;50.726;7.080;2022-10-16T07:28:57;14.20;99.90
27900;DHT22;15243;50.726;7.080;2022-10-16T07:31:25;14.30;99.90
27900;DHT22;15243;50.726;7.080;2022-10-16T07:33:52;14.40;99.90
27900;DHT22;15243;50.726;7.080;2022-10-16T07:36:20;14.40;99.90
27900;DHT22;15243;50.726;7.080;2022-10-16T07:38:47;14.40;99.90
27900;DHT22;15243;50.726;7.080;2022-10-16T07:41:16;14.40;99.90
27900;DHT22;15243;50.726;7.080;2022-10-16T07:43:48;14.40;99.90
27900;DHT22;15243;50.726;7.080;2022-10-16T07:46:15;14.40;99.90
27900;DHT22;15243;50.726;7.080;2022-10-16T07:48:43;14.40;99.90
27900;DHT22;15243;50.726;7.080;2022-10-16T07:51:22;14.40;99.90
27900;DHT22;15243;50.726;7.080;2022-10-16T07:53:49;14.40;99.90
27900;DHT22;15243;50.726;7.080;2022-10-16T07:56:18;14.40;99.90
27900;DHT22;15243;50.726;7.080;2022-10-16T07:58:45;14.50;99.90
27900;DHT22;15243;50.726;7.080;2022-10-16T08:01:14;14.60;99.90
27900;DHT22;15243;50.726;7.080;2022-10-16T08:03:46;14.70;99.90
27900;DHT22;15243;50.726;7.080;2022-10-16T08:06:13;14.70;99.90
27900;DHT22;15243;50.726;7.080;2022-10-16T08:08:40;14.80;99.90
27900;DHT22;15243;50.726;7.080;2022-10-16T08:11:07;14.80;99.90
27900;DHT22;15243;50.726;7.080;2022-10-16T08:13:34;14.80;99.90
27900;DHT22;15243;50.726;7.080;2022-10-16T08:16:02;14.90;99.90
27900;DHT22;15243;50.726;7.080;2022-10-16T08:18:35;14.90;99.90
27900;DHT22;15243;50.726;7.080;2022-10-16T08:21:02;14.90;99.90
27900;DHT22;15243;50.726;7.080;2022-10-16T08:23:30;14.90;99.90
27900;DHT22;15243;50.726;7.080;2022-10-16T08:26:04;15.00;99.90
27900;DHT22;15243;50.726;7.080;2022-10-16T08:28:31;15.00;99.90
27900;DHT22;15243;50.726;7.080;2022-10-16T08:31:06;15.10;99.90
27900;DHT22;15243;50.726;7.080;2022-10-16T08:33:33;15.20;99.90
27900;DHT22;15243;50.726;7.080;2022-10-16T08:36:02;15.30;99.90
27900;DHT22;15243;50.726;7.080;2022-10-16T08:38:29;15.40;99.90
27900;DHT22;15243;50.726;7.080;2022-10-16T08:41:36;15.50;99.90
27900;DHT22;15243;50.726;7.080;2022-10-16T08:49:30;15.90;99.90
27900;DHT22;15243;50.726;7.080;2022-10-16T08:51:58;16.00;99.90
27900;DHT22;15243;50.726;7.080;2022-10-16T08:54:35;16.00;99.90
27900;DHT22;15243;50.726;7.080;2022-10-16T08:57:11;16.10;99.90
27900;DHT22;15243;50.726;7.080;2022-10-16T08:59:38;16.10;99.90
27900;DHT22;15243;50.726;7.080;2022-10-16T09:02:24;16.10;99.90
27900;DHT22;15243;50.726;7.080;2022-10-16T09:05:01;16.20;99.90
27900;DHT22;15243;50.726;7.080;2022-10-16T09:11:00;16.40;99.90
27900;DHT22;15243;50.726;7.080;2022-10-16T09:14:19;16.40;99.90
27900;DHT22;15243;50.726;7.080;2022-10-16T09:16:38;16.50;99.90
27900;DHT22;15243;50.726;7.080;2022-10-16T09:19:27;16.60;99.90
27900;DHT22;15243;50.726;7.080;2022-10-16T09:22:00;16.70;99.90
27900;DHT22;15243;50.726;7.080;2022-10-16T09:24:30;17.00;99.90
27900;DHT22;15243;50.726;7.080;2022-10-16T09:26:57;17.10;99.90
27900;DHT22;15243;50.726;7.080;2022-10-16T09:29:24;17.40;99.90
27900;DHT22;15243;50.726;7.080;2022-10-16T09:31:53;17.40;99.90
27900;DHT22;15243;50.726;7.080;2022-10-16T09:34:33;17.50;99.90
27900;DHT22;15243;50.726;7.080;2022-10-16T09:37:04;17.50;99.90
27900;DHT22;15243;50.726;7.080;2022-10-16T09:39:44;17.70;99.90
27900;DHT22;15243;50.726;7.080;2022-10-16T09:42:32;18.00;99.90
27900;DHT22;15243;50.726;7.080;2022-10-16T09:45:00;18.00;99.90
27900;DHT22;15243;50.726;7.080;2022-10-16T09:47:28;18.10;99.90
27900;DHT22;15243;50.726;7.080;2022-10-16T09:50:20;18.10;99.90
27900;DHT22;15243;50.726;7.080;2022-10-16T09:52:48;18.20;99.90
27900;DHT22;15243;50.726;7.080;2022-10-16T09:55:17;18.00;99.90
27900;DHT22;15243;50.726;7.080;2022-10-16T09:57:51;17.90;99.90
27900;DHT22;15243;50.726;7.080;2022-10-16T10:00:19;18.00;99.90
27900;DHT22;15243;50.726;7.080;2022-10-16T10:02:46;18.10;99.90
27900;DHT22;15243;50.726;7.080;2022-10-16T10:05:25;18.20;99.90
27900;DHT22;15243;50.726;7.080;2022-10-16T10:08:00;18.30;99.90
27900;DHT22;15243;50.726;7.080;2022-10-16T10:10:34;18.50;99.90
27900;DHT22;15243;50.726;7.080;2022-10-16T10:13:03;18.50;99.90
27900;DHT22;15243;50.726;7.080;2022-10-16T10:15:34;18.60;99.90
27900;DHT22;15243;50.726;7.080;2022-10-16T10:18:14;18.60;99.90
27900;DHT22;15243;50.726;7.080;2022-10-16T10:20:44;18.40;99.90
27900;DHT22;15243;50.726;7.080;2022-10-16T10:23:25;18.60;99.90
27900;DHT22;15243;50.726;7.080;2022-10-16T10:31:21;18.90;99.90
27900;DHT22;15243;50.726;7.080;2022-10-16T10:34:16;19.00;99.90
27900;DHT22;15243;50.726;7.080;2022-10-16T10:36:47;19.00;99.90
27900;DHT22;15243;50.726;7.080;2022-10-16T10:39:27;19.00;99.90
27900;DHT22;15243;50.726;7.080;2022-10-16T10:56:03;20.20;99.90
27900;DHT22;15243;50.726;7.080;2022-10-16T11:01:15;20.30;99.90
27900;DHT22;15243;50.726;7.080;2022-10-16T11:06:52;19.80;99.90
27900;DHT22;15243;50.726;7.080;2022-10-16T11:09:25;19.60;99.90
27900;DHT22;15243;50.726;7.080;2022-10-16T11:12:01;20.10;99.90
27900;DHT22;15243;50.726;7.080;2022-10-16T11:14:44;20.10;99.90
27900;DHT22;15243;50.726;7.080;2022-10-16T11:17:39;20.00;99.90
27900;DHT22;15243;50.726;7.080;2022-10-16T11:20:29;20.20;99.90
27900;DHT22;15243;50.726;7.080;2022-10-16T11:22:58;20.20;99.90
27900;DHT22;15243;50.726;7.080;2022-10-16T11:25:33;20.30;99.90
27900;DHT22;15243;50.726;7.080;2022-10-16T11:28:16;20.20;99.90
27900;DHT22;15243;50.726;7.080;2022-10-16T11:30:47;20.20;99.90
27900;DHT22;15243;50.726;7.080;2022-10-16T11:33:45;20.20;99.90
27900;DHT22;15243;50.726;7.080;2022-10-16T11:36:21;20.50;99.90
27900;DHT22;15243;50.726;7.080;2022-10-16T11:39:16;20.90;99.90
27900;DHT22;15243;50.726;7.080;2022-10-16T11:41:51;21.00;99.90
27900;DHT22;15243;50.726;7.080;2022-10-16T11:47:35;20.60;99.90
27900;DHT22;15243;50.726;7.080;2022-10-16T11:56:19;20.30;99.90
27900;DHT22;15243;50.726;7.080;2022-10-16T12:01:56;19.70;99.90
27900;DHT22;15243;50.726;7.080;2022-10-16T12:04:38;19.60;99.90
27900;DHT22;15243;50.726;7.080;2022-10-16T12:07:55;19.70;99.90
27900;DHT22;15243;50.726;7.080;2022-10-16T12:10:25;19.80;99.90
27900;DHT22;15243;50.726;7.080;2022-10-16T12:12:54;19.50;99.90
27900;DHT22;15243;50.726;7.080;2022-10-16T12:18:22;19.30;99.90
27900;DHT22;15243;50.726;7.080;2022-10-16T12:20:59;19.50;99.90
27900;DHT22;15243;50.726;7.080;2022-10-16T12:24:05;19.70;99.90
27900;DHT22;15243;50.726;7.080;2022-10-16T12:26:33;19.90;99.90
27900;DHT22;15243;50.726;7.080;2022-10-16T12:29:30;19.70;99.90
27900;DHT22;15243;50.726;7.080;2022-10-16T12:31:58;19.70;99.90
27900;DHT22;15243;50.726;7.080;2022-10-16T12:34:43;19.80;99.90
27900;DHT22;15243;50.726;7.080;2022-10-16T12:39:57;19.90;99.90
27900;DHT22;15243;50.726;7.080;2022-10-16T12:44:55;19.90;99.90
27900;DHT22;15243;50.726;7.080;2022-10-16T12:49:59;19.70;99.90
27900;DHT22;15243;50.726;7.080;2022-10-16T12:52:37;19.90;99.90
27900;DHT22;15243;50.726;7.080;2022-10-16T12:55:12;20.30;99.90
27900;DHT22;15243;50.726;7.080;2022-10-16T12:58:06;20.70;99.90
27900;DHT22;15243;50.726;7.080;2022-10-16T13:00:57;21.00;99.90
27900;DHT22;15243;50.726;7.080;2022-10-16T13:03:37;21.00;99.90
27900;DHT22;15243;50.726;7.080;2022-10-16T13:16:57;20.10;99.90
27900;DHT22;15243;50.726;7.080;2022-10-16T13:27:43;19.90;99.90
27900;DHT22;15243;50.726;7.080;2022-10-16T13:30:39;20.00;99.90
27900;DHT22;15243;50.726;7.080;2022-10-16T13:33:12;20.20;99.90
27900;DHT22;15243;50.726;7.080;2022-10-16T13:35:48;20.20;99.90
27900;DHT22;15243;50.726;7.080;2022-10-16T13:38:19;20.10;99.90
27900;DHT22;15243;50.726;7.080;2022-10-16T13:41:01;20.00;99.90
27900;DHT22;15243;50.726;7.080;2022-10-16T13:43:50;19.90;99.90
27900;DHT22;15243;50.726;7.080;2022-10-16T13:46:20;20.00;99.90
27900;DHT22;15243;50.726;7.080;2022-10-16T13:49:11;20.10;99.90
27900;DHT22;15243;50.726;7.080;2022-10-16T13:51:38;20.20;99.90
27900;DHT22;15243;50.726;7.080;2022-10-16T13:54:07;20.50;99.90
27900;DHT22;15243;50.726;7.080;2022-10-16T13:56:34;21.00;99.90
27900;DHT22;15243;50.726;7.080;2022-10-16T13:59:06;21.50;99.90
27900;DHT22;15243;50.726;7.080;2022-10-16T14:01:44;22.30;99.90
27900;DHT22;15243;50.726;7.080;2022-10-16T14:04:12;22.00;99.90
27900;DHT22;15243;50.726;7.080;2022-10-16T14:06:43;21.40;99.90
27900;DHT22;15243;50.726;7.080;2022-10-16T14:09:23;21.10;99.90
27900;DHT22;15243;50.726;7.080;2022-10-16T14:12:03;20.80;99.90
27900;DHT22;15243;50.726;7.080;2022-10-16T14:14:45;20.50;99.90
27900;DHT22;15243;50.726;7.080;2022-10-16T14:17:19;20.40;99.90
27900;DHT22;15243;50.726;7.080;2022-10-16T14:19:48;20.20;99.90
27900;DHT22;15243;50.726;7.080;2022-10-16T14:22:36;20.10;99.90
27900;DHT22;15243;50.726;7.080;2022-10-16T14:25:30;20.10;99.90
27900;DHT22;15243;50.726;7.080;2022-10-16T14:28:00;20.20;99.90
27900;DHT22;15243;50.726;7.080;2022-10-16T14:30:29;20.40;99.90
27900;DHT22;15243;50.726;7.080;2022-10-16T14:33:02;20.30;99.90
27900;DHT22;15243;50.726;7.080;2022-10-16T14:35:34;20.30;99.90
27900;DHT22;15243;50.726;7.080;2022-10-16T14:38:04;20.30;99.90
27900;DHT22;15243;50.726;7.080;2022-10-16T14:40:36;20.40;99.90
27900;DHT22;15243;50.726;7.080;2022-10-16T14:43:04;20.30;99.90
27900;DHT22;15243;50.726;7.080;2022-10-16T14:45:34;20.40;99.90
27900;DHT22;15243;50.726;7.080;2022-10-16T14:48:05;20.20;99.90
27900;DHT22;15243;50.726;7.080;2022-10-16T14:50:33;20.10;99.90
27900;DHT22;15243;50.726;7.080;2022-10-16T14:53:00;20.00;99.90
27900;DHT22;15243;50.726;7.080;2022-10-16T14:55:26;19.90;99.90
27900;DHT22;15243;50.726;7.080;2022-10-16T14:57:53;19.80;99.90
27900;DHT22;15243;50.726;7.080;2022-10-16T15:00:26;19.80;99.90
27900;DHT22;15243;50.726;7.080;2022-10-16T15:02:53;19.70;99.90
27900;DHT22;15243;50.726;7.080;2022-10-16T15:05:22;19.60;99.90
27900;DHT22;15243;50.726;7.080;2022-10-16T15:07:50;19.50;99.90
27900;DHT22;15243;50.726;7.080;2022-10-16T15:10:24;19.50;99.90
27900;DHT22;15243;50.726;7.080;2022-10-16T15:12:52;19.40;99.90
27900;DHT22;15243;50.726;7.080;2022-10-16T15:15:38;19.30;99.90
27900;DHT22;15243;50.726;7.080;2022-10-16T15:18:07;19.30;99.90
27900;DHT22;15243;50.726;7.080;2022-10-16T15:20:36;19.30;99.90
27900;DHT22;15243;50.726;7.080;2022-10-16T15:23:06;19.30;99.90
27900;DHT22;15243;50.726;7.080;2022-10-16T15:25:56;19.30;99.90
27900;DHT22;15243;50.726;7.080;2022-10-16T15:28:24;19.20;99.90
27900;DHT22;15243;50.726;7.080;2022-10-16T15:30:54;19.10;99.90
27900;DHT22;15243;50.726;7.080;2022-10-16T15:33:24;19.10;99.90
27900;DHT22;15243;50.726;7.080;2022-10-16T15:35:54;19.10;99.90
27900;DHT22;15243;50.726;7.080;2022-10-16T15:38:21;19.00;99.90
27900;DHT22;15243;50.726;7.080;2022-10-16T15:40:49;19.00;99.90
27900;DHT22;15243;50.726;7.080;2022-10-16T15:43:17;19.00;99.90
27900;DHT22;15243;50.726;7.080;2022-10-16T15:46:02;19.00;99.90
27900;DHT22;15243;50.726;7.080;2022-10-16T15:48:30;18.90;99.90
27900;DHT22;15243;50.726;7.080;2022-10-16T15:50:58;18.90;99.90
27900;DHT22;15243;50.726;7.080;2022-10-16T15:53:25;18.80;99.90
27900;DHT22;15243;50.726;7.080;2022-10-16T15:55:52;18.80;99.90
27900;DHT22;15243;50.726;7.080;2022-10-16T15:58:19;18.70;99.90
27900;DHT22;15243;50.726;7.080;2022-10-16T16:00:57;18.60;99.90
27900;DHT22;15243;50.726;7.080;2022-10-16T16:03:24;18.70;99.90
27900;DHT22;15243;50.726;7.080;2022-10-16T16:05:50;18.60;99.90
27900;DHT22;15243;50.726;7.080;2022-10-16T16:08:17;18.50;99.90
27900;DHT22;15243;50.726;7.080;2022-10-16T16:10:44;18.60;99.90
27900;DHT22;15243;50.726;7.080;2022-10-16T16:13:11;18.50;99.90
27900;DHT22;15243;50.726;7.080;2022-10-16T16:15:39;18.50;99.90
27900;DHT22;15243;50.726;7.080;2022-10-16T16:18:07;18.50;99.90
27900;DHT22;15243;50.726;7.080;2022-10-16T16:20:36;18.40;99.90
27900;DHT22;15243;50.726;7.080;2022-10-16T16:23:03;18.30;99.90
27900;DHT22;15243;50.726;7.080;2022-10-16T16:25:30;18.30;99.90
27900;DHT22;15243;50.726;7.080;2022-10-16T16:27:57;18.20;99.90
27900;DHT22;15243;50.726;7.080;2022-10-16T16:30:24;18.20;99.90
27900;DHT22;15243;50.726;7.080;2022-10-16T16:32:53;18.20;99.90
27900;DHT22;15243;50.726;7.080;2022-10-16T16:35:20;18.10;99.90
27900;DHT22;15243;50.726;7.080;2022-10-16T16:37:48;18.10;99.90
27900;DHT22;15243;50.726;7.080;2022-10-16T16:40:15;18.00;99.90
27900;DHT22;15243;50.726;7.080;2022-10-16T16:42:41;18.00;99.90
27900;DHT22;15243;50.726;7.080;2022-10-16T16:45:09;17.90;99.90
27900;DHT22;15243;50.726;7.080;2022-10-16T16:47:36;17.90;99.90
27900;DHT22;15243;50.726;7.080;2022-10-16T16:50:02;17.90;99.90
27900;DHT22;15243;50.726;7.080;2022-10-16T16:52:31;17.90;99.90
27900;DHT22;15243;50.726;7.080;2022-10-16T16:54:58;17.90;99.90
27900;DHT22;15243;50.726;7.080;2022-10-16T16:57:25;17.90;99.90
27900;DHT22;15243;50.726;7.080;2022-10-16T16:59:52;17.90;99.90
27900;DHT22;15243;50.726;7.080;2022-10-16T17:02:19;17.80;99.90
27900;DHT22;15243;50.726;7.080;2022-10-16T17:04:46;17.90;99.90
27900;DHT22;15243;50.726;7.080;2022-10-16T17:07:13;17.80;99.90
27900;DHT22;15243;50.726;7.080;2022-10-16T17:09:39;17.80;99.90
27900;DHT22;15243;50.726;7.080;2022-10-16T17:12:06;17.80;99.90
27900;DHT22;15243;50.726;7.080;2022-10-16T17:14:33;17.70;99.90
27900;DHT22;15243;50.726;7.080;2022-10-16T17:17:00;17.70;99.90
27900;DHT22;15243;50.726;7.080;2022-10-16T17:19:27;17.70;99.90
27900;DHT22;15243;50.726;7.080;2022-10-16T17:21:54;17.70;99.90